createdAt,value
2022-11-15T00:01:18.001Z,100851.13
2022-11-15T00:04:06.599Z,100846.47
2022-11-15T00:06:55.815Z,100849.19
2022-11-15T00:09:45.844Z,100854.47
2022-11-15T00:12:31.309Z,100859.56
2022-11-15T00:15:16.722Z,100849.97
2022-11-15T00:18:02.026Z,100848.50
2022-11-15T00:20:53.843Z,100842.34
2022-11-15T00:23:40.324Z,100844.41
2022-11-15T00:26:32.932Z,100844.53
2022-11-15T00:29:18.381Z,100846.25
2022-11-15T00:32:03.712Z,100840.09
2022-11-15T00:34:49.063Z,100840.91
2022-11-15T00:37:34.578Z,100837.34
2022-11-15T00:40:19.791Z,100834.59
2022-11-15T00:43:05.571Z,100837.84
2022-11-15T00:45:50.897Z,100829.59
2022-11-15T00:48:36.106Z,100821.38
2022-11-15T00:51:21.366Z,100817.94
2022-11-15T00:54:06.970Z,100818.75
2022-11-15T00:56:52.093Z,100807.44
2022-11-15T00:59:37.460Z,100800.22
2022-11-15T01:02:23.151Z,100806.03
2022-11-15T01:05:09.436Z,100809.81
2022-11-15T01:07:57.295Z,100811.28
2022-11-15T01:10:42.944Z,100799.84
2022-11-15T01:13:31.676Z,100794.59
2022-11-15T01:16:19.627Z,100791.72
2022-11-15T01:19:04.839Z,100789.28
2022-11-15T01:21:51.222Z,100785.41
2022-11-15T01:24:36.916Z,100783.47
2022-11-15T01:27:22.578Z,100789.41
2022-11-15T01:30:09.292Z,100781.06
2022-11-15T01:32:54.736Z,100776.38
2022-11-15T01:35:41.180Z,100779.00
2022-11-15T01:38:26.650Z,100776.47
2022-11-15T01:41:25.048Z,100778.41
2022-11-15T01:44:32.343Z,100784.56
2022-11-15T01:47:26.036Z,100773.81
2022-11-15T01:50:15.499Z,100765.59
2022-11-15T01:53:00.752Z,100769.81
2022-11-15T01:55:46.271Z,100773.69
2022-11-15T01:58:31.564Z,100782.28
2022-11-15T02:01:16.886Z,100793.66
2022-11-15T02:04:08.998Z,100783.75
2022-11-15T02:06:54.909Z,100777.69
2022-11-15T02:09:41.083Z,100769.00
2022-11-15T02:12:26.306Z,100763.53
2022-11-15T02:15:12.712Z,100749.81
2022-11-15T02:18:21.767Z,100753.25
2022-11-15T02:21:40.601Z,100745.03
2022-11-15T02:24:51.488Z,100749.38
2022-11-15T02:27:48.801Z,100748.44
2022-11-15T02:30:55.216Z,100747.84
2022-11-15T02:34:08.774Z,100738.00
2022-11-15T02:37:27.245Z,100736.38
2022-11-15T02:40:18.441Z,100747.69
2022-11-15T02:43:35.593Z,100739.81
2022-11-15T02:47:13.118Z,100737.41
2022-11-15T02:50:02.037Z,100733.41
2022-11-15T02:52:49.673Z,100731.47
2022-11-15T02:55:39.791Z,100726.00
2022-11-15T02:58:27.647Z,100719.84
2022-11-15T03:01:13.119Z,100720.97
2022-11-15T03:04:11.013Z,100713.22
2022-11-15T03:07:12.226Z,100719.50
2022-11-15T03:09:57.841Z,100712.41
2022-11-15T03:12:55.335Z,100701.13
2022-11-15T03:15:54.745Z,100695.97
2022-11-15T03:18:43.705Z,100692.91
2022-11-15T03:21:31.477Z,100693.72
2022-11-15T03:24:25.626Z,100686.41
2022-11-15T03:27:16.749Z,100694.63
2022-11-15T03:30:07.439Z,100692.38
2022-11-15T03:32:57.562Z,100695.69
2022-11-15T03:35:46.085Z,100681.66
2022-11-15T03:38:33.140Z,100690.66
2022-11-15T03:41:28.233Z,100677.47
2022-11-15T03:44:41.494Z,100672.75
2022-11-15T03:47:37.586Z,100668.06
2022-11-15T03:50:25.179Z,100673.69
2022-11-15T03:53:11.080Z,100665.91
2022-11-15T03:55:56.481Z,100664.47
2022-11-15T03:58:41.615Z,100668.09
2022-11-15T04:01:26.981Z,100663.88
2022-11-15T04:04:12.491Z,100659.00
2022-11-15T04:06:57.862Z,100667.31
2022-11-15T04:10:01.797Z,100655.69
2022-11-15T04:12:49.785Z,100658.91
2022-11-15T04:15:35.436Z,100659.00
2022-11-15T04:18:21.209Z,100662.66
2022-11-15T04:21:25.240Z,100662.00
2022-11-15T04:24:16.220Z,100673.53
2022-11-15T04:27:01.447Z,100668.53
2022-11-15T04:29:46.758Z,100670.91
2022-11-15T04:32:32.063Z,100664.31
2022-11-15T04:35:17.431Z,100665.09
2022-11-15T04:38:04.487Z,100664.41
2022-11-15T04:40:49.953Z,100666.00
2022-11-15T04:43:36.065Z,100658.25
2022-11-15T04:46:22.076Z,100659.50
2022-11-15T04:49:07.256Z,100668.19
2022-11-15T04:51:52.764Z,100659.63
2022-11-15T04:54:38.005Z,100653.47
2022-11-15T04:57:23.320Z,100655.16
2022-11-15T05:00:11.762Z,100652.19
2022-11-15T05:03:16.290Z,100653.09
2022-11-15T05:06:02.043Z,100645.66
2022-11-15T05:08:47.829Z,100638.38
2022-11-15T05:11:33.248Z,100643.94
2022-11-15T05:14:18.452Z,100643.25
2022-11-15T05:17:03.724Z,100651.16
2022-11-15T05:19:49.261Z,100645.78
2022-11-15T05:22:34.485Z,100645.09
2022-11-15T05:25:19.959Z,100652.28
2022-11-15T05:28:05.186Z,100649.97
2022-11-15T05:30:50.632Z,100646.53
2022-11-15T05:33:38.477Z,100640.81
2022-11-15T05:36:29.770Z,100646.75
2022-11-15T05:39:15.286Z,100647.56
2022-11-15T05:42:11.863Z,100650.06
2022-11-15T05:44:58.836Z,100638.06
2022-11-15T05:47:45.966Z,100649.22
2022-11-15T05:50:31.754Z,100642.00
2022-11-15T05:53:20.580Z,100650.38
2022-11-15T05:56:07.616Z,100649.00
2022-11-15T05:58:59.775Z,100647.94
2022-11-15T06:01:45.961Z,100640.59
2022-11-15T06:04:31.439Z,100629.72
2022-11-15T06:07:16.812Z,100627.06
2022-11-15T06:10:02.852Z,100648.81
2022-11-15T06:12:47.996Z,100649.69
2022-11-15T06:15:35.560Z,100647.41
2022-11-15T06:18:21.028Z,100649.09
2022-11-15T06:21:07.320Z,100652.75
2022-11-15T06:23:52.936Z,100658.78
2022-11-15T06:26:38.310Z,100647.88
2022-11-15T06:29:23.875Z,100655.06
2022-11-15T06:32:09.260Z,100650.47
2022-11-15T06:34:54.851Z,100667.88
2022-11-15T06:37:40.332Z,100657.41
2022-11-15T06:40:25.786Z,100664.50
2022-11-15T06:43:11.067Z,100661.84
2022-11-15T06:45:56.206Z,100669.03
2022-11-15T06:48:41.318Z,100678.97
2022-11-15T06:51:27.079Z,100671.63
2022-11-15T06:54:12.417Z,100691.06
2022-11-15T06:56:57.662Z,100690.38
2022-11-15T06:59:42.851Z,100688.03
2022-11-15T07:02:28.070Z,100681.47
2022-11-15T07:05:14.298Z,100687.06
2022-11-15T07:08:00.774Z,100684.41
2022-11-15T07:10:46.407Z,100692.75
2022-11-15T07:13:36.539Z,100692.06
2022-11-15T07:16:22.254Z,100692.16
2022-11-15T07:19:09.689Z,100689.03
2022-11-15T07:21:55.135Z,100696.22
2022-11-15T07:24:40.799Z,100700.66
2022-11-15T07:27:26.277Z,100693.63
2022-11-15T07:30:15.402Z,100703.59
2022-11-15T07:33:02.234Z,100704.50
2022-11-15T07:35:50.921Z,100710.84
2022-11-15T07:38:42.569Z,100709.34
2022-11-15T07:41:30.201Z,100707.09
2022-11-15T07:44:15.527Z,100704.09
2022-11-15T07:47:00.727Z,100702.59
2022-11-15T07:49:47.311Z,100702.22
2022-11-15T07:52:32.964Z,100707.00
2022-11-15T07:55:18.471Z,100699.28
2022-11-15T07:58:08.656Z,100701.38
2022-11-15T08:00:54.841Z,100706.63
2022-11-15T08:03:40.435Z,100696.97
2022-11-15T08:06:25.812Z,100706.53
2022-11-15T08:09:11.134Z,100694.00
2022-11-15T08:11:56.685Z,100703.50
2022-11-15T08:14:41.768Z,100703.16
2022-11-15T08:17:27.459Z,100696.03
2022-11-15T08:20:12.489Z,100698.00
2022-11-15T08:23:02.761Z,100690.94
2022-11-15T08:25:48.439Z,100699.69
2022-11-15T08:28:33.980Z,100700.19
2022-11-15T08:31:19.895Z,100703.88
2022-11-15T08:34:06.282Z,100704.03
2022-11-15T08:36:51.582Z,100706.50
2022-11-15T08:39:37.198Z,100704.97
2022-11-15T08:42:22.624Z,100710.56
2022-11-15T08:45:09.490Z,100704.63
2022-11-15T08:47:54.914Z,100696.69
2022-11-15T08:50:40.841Z,100701.41
2022-11-15T08:53:26.428Z,100693.16
2022-11-15T08:56:13.462Z,100691.66
2022-11-15T08:58:58.701Z,100679.88
2022-11-15T09:01:43.946Z,100685.03
2022-11-15T09:04:29.611Z,100679.75
2022-11-15T09:07:15.481Z,100684.22
2022-11-15T09:10:01.185Z,100691.38
2022-11-15T09:12:49.462Z,100682.63
2022-11-15T09:15:35.428Z,100679.13
2022-11-15T09:18:23.483Z,100678.84
2022-11-15T09:21:09.385Z,100685.84
2022-11-15T09:23:54.902Z,100689.00
2022-11-15T09:26:40.833Z,100681.88
2022-11-15T09:29:26.267Z,100690.16
2022-11-15T09:32:11.607Z,100685.44
2022-11-15T09:34:57.296Z,100687.91
2022-11-15T09:37:43.148Z,100677.81
2022-11-15T09:40:28.852Z,100675.47
2022-11-15T09:43:20.231Z,100674.31
2022-11-15T09:46:18.944Z,100677.31
2022-11-15T09:49:05.458Z,100669.28
2022-11-15T09:52:05.001Z,100671.72
2022-11-15T09:57:21.821Z,100665.97
2022-11-15T10:00:46.391Z,100667.34
2022-11-15T10:03:26.322Z,100660.47
2022-11-15T10:05:56.570Z,100668.53
2022-11-15T10:09:02.150Z,100669.91
2022-11-15T10:11:39.744Z,100662.97
2022-11-15T10:14:26.676Z,100669.03
2022-11-15T10:17:21.388Z,100661.66
2022-11-15T10:20:05.903Z,100663.88
2022-11-15T10:22:40.072Z,100647.78
2022-11-15T10:25:10.077Z,100650.19
2022-11-15T10:27:37.374Z,100650.19
2022-11-15T10:30:11.687Z,100645.13
2022-11-15T10:32:38.741Z,100647.09
2022-11-15T10:35:25.086Z,100644.00
2022-11-15T10:37:52.185Z,100640.47
2022-11-15T10:40:24.314Z,100637.34
2022-11-15T10:43:11.518Z,100631.09
2022-11-15T10:45:39.561Z,100633.09
2022-11-15T10:48:15.730Z,100626.34
2022-11-15T10:50:44.937Z,100631.88
2022-11-15T10:53:41.630Z,100635.06
2022-11-15T10:56:13.000Z,100631.50
2022-11-15T10:58:43.015Z,100631.97
2022-11-15T11:01:14.269Z,100615.38
2022-11-15T11:03:42.481Z,100622.50
2022-11-15T11:06:18.208Z,100610.66
2022-11-15T11:08:59.515Z,100617.03
2022-11-15T11:11:45.132Z,100611.13
2022-11-15T11:14:28.073Z,100600.91
2022-11-15T11:17:12.816Z,100605.38
2022-11-15T11:19:54.697Z,100595.94
2022-11-15T11:22:43.347Z,100605.88
2022-11-15T11:25:27.561Z,100602.38
2022-11-15T11:28:26.729Z,100608.31
2022-11-15T11:31:29.852Z,100607.16
2022-11-15T11:34:18.810Z,100604.00
2022-11-15T11:36:54.541Z,100600.81
2022-11-15T11:39:40.214Z,100607.91
2022-11-15T11:42:29.797Z,100598.75
2022-11-15T11:45:12.182Z,100594.78
2022-11-15T11:48:03.666Z,100596.63
2022-11-15T11:50:30.897Z,100594.97
2022-11-15T11:53:04.576Z,100596.47
2022-11-15T11:55:40.897Z,100598.00
2022-11-15T11:58:20.784Z,100590.50
2022-11-15T12:00:53.268Z,100579.88
2022-11-15T12:03:39.214Z,100577.19
2022-11-15T12:06:43.734Z,100577.66
2022-11-15T12:09:43.581Z,100579.34
2022-11-15T12:12:19.686Z,100569.91
2022-11-15T12:14:56.662Z,100566.72
2022-11-15T12:17:33.062Z,100564.00
2022-11-15T12:20:04.522Z,100554.53
2022-11-15T12:22:39.320Z,100558.47
2022-11-15T12:25:16.678Z,100562.41
2022-11-15T12:27:49.634Z,100572.38
2022-11-15T12:30:19.947Z,100570.03
2022-11-15T12:32:59.339Z,100563.66
2022-11-15T12:35:38.868Z,100568.78
2022-11-15T12:38:09.852Z,100560.66
2022-11-15T12:41:18.831Z,100549.66
2022-11-15T12:43:47.831Z,100555.31
2022-11-15T12:46:31.746Z,100541.56
2022-11-15T12:49:05.552Z,100547.81
2022-11-15T12:51:44.906Z,100548.81
2022-11-15T12:54:23.753Z,100547.66
2022-11-15T12:57:08.849Z,100545.44
2022-11-15T12:59:56.361Z,100543.31
2022-11-15T13:02:37.242Z,100545.50
2022-11-15T13:05:36.111Z,100545.50
2022-11-15T13:08:03.207Z,100533.53
2022-11-15T13:10:33.494Z,100532.69
2022-11-15T13:13:08.462Z,100527.63
2022-11-15T13:15:47.322Z,100524.41
2022-11-15T13:18:31.533Z,100527.56
2022-11-15T13:21:02.332Z,100526.38
2022-11-15T13:23:30.263Z,100509.34
2022-11-15T13:26:19.173Z,100500.00
2022-11-15T13:28:50.562Z,100496.78
2022-11-15T13:31:30.664Z,100490.41
2022-11-15T13:34:02.425Z,100487.94
2022-11-15T13:36:35.375Z,100487.13
2022-11-15T13:39:07.089Z,100489.47
2022-11-15T13:41:48.242Z,100487.44
2022-11-15T13:44:28.697Z,100487.44
2022-11-15T13:47:21.088Z,100488.94
2022-11-15T13:49:48.129Z,100481.41
2022-11-15T13:52:18.000Z,100480.56
2022-11-15T13:54:52.301Z,100467.19
2022-11-15T13:57:41.537Z,100468.72
2022-11-15T14:00:45.290Z,100453.66
2022-11-15T14:03:25.725Z,100456.34
2022-11-15T14:06:07.930Z,100448.03
2022-11-15T14:08:36.152Z,100438.47
2022-11-15T14:11:17.763Z,100445.19
2022-11-15T14:14:08.409Z,100437.97
2022-11-15T14:16:43.131Z,100428.00
2022-11-15T14:19:34.753Z,100423.13
2022-11-15T14:22:21.534Z,100425.53
2022-11-15T14:25:19.826Z,100436.91
2022-11-15T14:28:09.761Z,100436.47
2022-11-15T14:30:37.128Z,100437.66
2022-11-15T14:33:21.857Z,100432.44
2022-11-15T14:35:48.906Z,100432.78
2022-11-15T14:38:15.733Z,100435.06
2022-11-15T14:40:44.772Z,100437.34
2022-11-15T14:43:12.845Z,100429.38
2022-11-15T14:45:40.224Z,100419.03
2022-11-15T14:48:07.424Z,100416.59
2022-11-15T14:50:35.674Z,100409.00
2022-11-15T14:53:02.821Z,100398.69
2022-11-15T14:55:33.595Z,100404.94
2022-11-15T14:58:00.753Z,100401.31
2022-11-15T15:00:32.299Z,100395.72
2022-11-15T15:03:03.398Z,100388.22
2022-11-15T15:05:35.651Z,100390.16
2022-11-15T15:08:02.877Z,100383.00
2022-11-15T15:10:42.185Z,100384.09
2022-11-15T15:13:17.677Z,100379.41
2022-11-15T15:15:45.154Z,100374.69
2022-11-15T15:18:12.470Z,100375.53
2022-11-15T15:20:41.708Z,100374.06
2022-11-15T15:23:19.855Z,100372.94
2022-11-15T15:25:49.744Z,100369.84
2022-11-15T15:28:16.866Z,100367.84
2022-11-15T15:30:44.146Z,100363.13
2022-11-15T15:33:11.127Z,100354.44
2022-11-15T15:35:37.925Z,100350.84
2022-11-15T15:38:05.530Z,100351.03
2022-11-15T15:40:34.334Z,100350.94
2022-11-15T15:43:01.229Z,100346.84
2022-11-15T15:45:29.156Z,100345.56
2022-11-15T15:47:56.457Z,100346.63
2022-11-15T15:50:23.375Z,100336.34
2022-11-15T15:52:52.706Z,100335.06
2022-11-15T15:55:20.097Z,100325.97
2022-11-15T15:57:47.146Z,100315.69
2022-11-15T16:00:15.256Z,100321.84
2022-11-15T16:02:42.702Z,100319.44
2022-11-15T16:05:10.966Z,100320.56
2022-11-15T16:07:38.965Z,100314.66
2022-11-15T16:10:25.861Z,100307.16
2022-11-15T16:12:53.985Z,100301.72
2022-11-15T16:15:21.983Z,100306.97
2022-11-15T16:17:56.756Z,100300.06
2022-11-15T16:20:33.999Z,100302.13
2022-11-15T16:23:07.555Z,100301.47
2022-11-15T16:25:43.126Z,100292.91
2022-11-15T16:28:37.164Z,100288.59
2022-11-15T16:31:10.541Z,100291.81
2022-11-15T16:33:38.111Z,100281.59
2022-11-15T16:36:07.146Z,100271.38
2022-11-15T16:38:34.761Z,100275.00
2022-11-15T16:41:02.453Z,100275.00
2022-11-15T16:43:29.369Z,100272.31
2022-11-15T16:45:56.409Z,100269.22
2022-11-15T16:48:25.623Z,100261.00
2022-11-15T16:50:57.591Z,100265.38
2022-11-15T16:53:26.175Z,100262.28
2022-11-15T16:55:53.160Z,100262.28
2022-11-15T16:58:21.670Z,100262.28
2022-11-15T17:00:53.743Z,100250.44
2022-11-15T17:03:22.257Z,100247.78
2022-11-15T17:05:49.724Z,100253.72
2022-11-15T17:08:16.700Z,100260.44
2022-11-15T17:10:44.299Z,100265.22
2022-11-15T17:13:14.272Z,100253.81
2022-11-15T17:15:41.876Z,100253.44
2022-11-15T17:18:12.901Z,100250.72
2022-11-15T17:20:41.591Z,100246.81
2022-11-15T17:23:14.841Z,100248.38
2022-11-15T17:25:42.174Z,100245.63
2022-11-15T17:28:09.015Z,100249.97
2022-11-15T17:30:36.209Z,100246.06
2022-11-15T17:33:03.120Z,100248.81
2022-11-15T17:35:29.975Z,100247.28
2022-11-15T17:37:56.824Z,100252.41
2022-11-15T17:40:23.640Z,100247.31
2022-11-15T17:42:50.416Z,100242.22
2022-11-15T17:45:17.595Z,100236.31
2022-11-15T17:47:44.489Z,100227.63
2022-11-15T17:50:11.712Z,100240.66
2022-11-15T17:52:38.775Z,100232.78
2022-11-15T17:55:05.956Z,100238.31
2022-11-15T17:57:32.736Z,100232.38
2022-11-15T17:59:59.805Z,100232.38
2022-11-15T18:02:26.877Z,100234.78
2022-11-15T18:04:53.687Z,100232.78
2022-11-15T18:07:21.212Z,100228.50
2022-11-15T18:09:48.273Z,100227.31
2022-11-15T18:12:15.306Z,100228.91
2022-11-15T18:14:42.541Z,100220.25
2022-11-15T18:17:09.719Z,100221.47
2022-11-15T18:19:37.707Z,100223.06
2022-11-15T18:22:07.417Z,100219.16
2022-11-15T18:24:36.786Z,100209.31
2022-11-15T18:27:05.694Z,100212.88
2022-11-15T18:29:34.756Z,100207.81
2022-11-15T18:32:05.044Z,100211.38
2022-11-15T18:34:34.051Z,100210.56
2022-11-15T18:37:02.997Z,100207.41
2022-11-15T18:39:30.291Z,100198.38
2022-11-15T18:41:57.288Z,100198.81
2022-11-15T18:44:24.343Z,100196.06
2022-11-15T18:46:51.214Z,100192.94
2022-11-15T18:49:19.755Z,100184.66
2022-11-15T18:51:47.896Z,100186.25
2022-11-15T18:54:16.376Z,100181.91
2022-11-15T18:56:44.675Z,100185.47
2022-11-15T18:59:12.053Z,100179.16
2022-11-15T19:01:41.189Z,100178.78
2022-11-15T19:04:11.118Z,100179.59
2022-11-15T19:06:43.092Z,100181.19
2022-11-15T19:09:11.691Z,100181.97
2022-11-15T19:11:39.996Z,100181.97
2022-11-15T19:14:09.647Z,100166.22
2022-11-15T19:16:45.166Z,100175.75
2022-11-15T19:19:15.247Z,100173.75
2022-11-15T19:21:42.423Z,100169.47
2022-11-15T19:24:10.613Z,100167.06
2022-11-15T19:26:38.040Z,100165.47
2022-11-15T19:29:07.146Z,100165.50
2022-11-15T19:31:34.265Z,100158.38
2022-11-15T19:34:04.571Z,100150.47
2022-11-15T19:36:34.380Z,100159.16
2022-11-15T19:39:08.540Z,100158.31
2022-11-15T19:41:42.130Z,100153.16
2022-11-15T19:44:10.580Z,100157.06
2022-11-15T19:46:38.369Z,100152.31
2022-11-15T19:49:08.003Z,100150.31
2022-11-15T19:51:35.046Z,100155.03
2022-11-15T19:54:06.916Z,100154.19
2022-11-15T19:56:35.240Z,100159.63
2022-11-15T19:59:03.069Z,100154.03
2022-11-15T20:01:32.395Z,100156.31
2022-11-15T20:04:00.462Z,100157.84
2022-11-15T20:06:30.107Z,100154.63
2022-11-15T20:08:57.966Z,100148.25
2022-11-15T20:11:26.058Z,100141.09
2022-11-15T20:13:58.000Z,100138.69
2022-11-15T20:16:25.411Z,100135.53
2022-11-15T20:18:53.576Z,100137.84
2022-11-15T20:21:21.945Z,100133.09
2022-11-15T20:23:51.135Z,100137.03
2022-11-15T20:26:19.592Z,100138.94
2022-11-15T20:28:48.251Z,100132.22
2022-11-15T20:31:16.228Z,100121.16
2022-11-15T20:33:43.061Z,100128.63
2022-11-15T20:36:12.651Z,100123.84
2022-11-15T20:38:39.947Z,100125.41
2022-11-15T20:41:07.381Z,100125.00
2022-11-15T20:43:34.657Z,100125.00
2022-11-15T20:46:01.653Z,100127.31
2022-11-15T20:48:28.536Z,100114.72
2022-11-15T20:51:11.916Z,100121.03
2022-11-15T20:53:38.738Z,100111.16
2022-11-15T20:56:08.687Z,100108.41
2022-11-15T20:58:37.044Z,100111.97
2022-11-15T21:01:05.969Z,100110.78
2022-11-15T21:03:33.788Z,100110.41
2022-11-15T21:06:00.998Z,100111.22
2022-11-15T21:08:27.993Z,100099.00
2022-11-15T21:11:13.779Z,100100.59
2022-11-15T21:13:40.608Z,100101.00
2022-11-15T21:16:07.856Z,100097.44
2022-11-15T21:18:35.805Z,100097.06
2022-11-15T21:21:04.905Z,100088.78
2022-11-15T21:23:31.970Z,100093.88
2022-11-15T21:25:59.368Z,100083.66
2022-11-15T21:28:26.492Z,100087.59
2022-11-15T21:30:58.416Z,100082.47
2022-11-15T21:33:27.590Z,100082.81
2022-11-15T21:35:57.805Z,100078.06
2022-11-15T21:38:24.869Z,100082.41
2022-11-15T21:40:53.123Z,100080.81
2022-11-15T21:43:21.153Z,100069.00
2022-11-15T21:46:00.440Z,100073.72
2022-11-15T21:48:28.632Z,100073.34
2022-11-15T21:51:01.058Z,100057.19
2022-11-15T21:53:29.546Z,100072.22
2022-11-15T21:55:56.265Z,100063.59
2022-11-15T21:58:23.989Z,100055.28
2022-11-15T22:01:09.348Z,100056.06
2022-11-15T22:03:36.468Z,100063.19
2022-11-15T22:06:03.451Z,100061.19
2022-11-15T22:08:31.855Z,100058.81
2022-11-15T22:10:59.269Z,100050.91
2022-11-15T22:13:26.956Z,100052.09
2022-11-15T22:15:54.765Z,100045.81
2022-11-15T22:18:26.593Z,100055.22
2022-11-15T22:21:05.049Z,100044.59
2022-11-15T22:23:33.868Z,100031.97
2022-11-15T22:26:01.009Z,100041.41
2022-11-15T22:28:28.397Z,100035.91
2022-11-15T22:30:56.050Z,100037.88
2022-11-15T22:33:26.073Z,100029.97
2022-11-15T22:35:53.863Z,100032.31
2022-11-15T22:38:20.716Z,100032.72
2022-11-15T22:40:47.730Z,100019.34
2022-11-15T22:43:16.065Z,100025.22
2022-11-15T22:45:52.368Z,100023.63
2022-11-15T22:48:21.630Z,100021.66
2022-11-15T22:50:48.482Z,100018.91
2022-11-15T22:53:15.458Z,100023.25
2022-11-15T22:55:42.366Z,100022.84
2022-11-15T22:58:09.878Z,100012.59
2022-11-15T23:00:37.482Z,100018.91
2022-11-15T23:03:04.502Z,100011.03
2022-11-15T23:05:31.247Z,100009.84
2022-11-15T23:07:58.076Z,100013.41
2022-11-15T23:10:43.565Z,100007.53
2022-11-15T23:13:16.436Z,100004.78
2022-11-15T23:16:04.347Z,100009.09
2022-11-15T23:18:39.127Z,99998.88
2022-11-15T23:21:10.034Z,99996.56
2022-11-15T23:23:37.582Z,99992.56
2022-11-15T23:26:05.415Z,99992.22
2022-11-15T23:28:34.687Z,99994.16
2022-11-15T23:31:24.561Z,99983.53
2022-11-15T23:33:58.103Z,99977.22
2022-11-15T23:36:27.031Z,99978.41
2022-11-15T23:38:53.870Z,99971.28
2022-11-15T23:41:21.946Z,99980.78
2022-11-15T23:43:48.805Z,99973.69
2022-11-15T23:46:16.350Z,99980.03
2022-11-15T23:48:43.472Z,99980.03
2022-11-15T23:51:10.521Z,99985.16
2022-11-15T23:53:37.581Z,99975.28
2022-11-15T23:56:12.158Z,99969.03
2022-11-15T23:58:39.609Z,99973.75
